Weather reports worldwide

Advertisment
Coventry/Coundon, United Kingdom (99070): temperature & dewpoint: 10.09.2019 16:00:00 - 16.09.2019 16:00:00 (BST)Coventry/Coundon, United Kingdom (99070): temperature -20cm & temperature -100cm: 10.09.2019 16:00:00 - 16.09.2019 16:00:00 (BST)Coventry/Coundon, United Kingdom (99070): wind speed: 10.09.2019 16:00:00 - 16.09.2019 16:00:00 (BST)Coventry/Coundon, United Kingdom (99070): wind direction: 10.09.2019 16:00:00 - 16.09.2019 16:00:00 (BST)Coventry/Coundon, United Kingdom (99070): precipitation: 10.09.2019 16:00:00 - 16.09.2019 16:00:00 (BST)
Date & Time tt [°C] td [°C] tt -20cm [°C] tt -100cm [°C] ff [km/h] ff [kn] dd rr [mm]
16.09.2019 16:00:00 15,6 11,8 - - 8 4 NNW -
16.09.2019 15:00:00 14,8 12,7 - - 5 3 N 0,0
16.09.2019 14:00:00 14,6 12,9 - - 9 5 N 0,0
16.09.2019 13:00:00 14,4 12,6 - - 8 4 NNE 0,0
16.09.2019 12:00:00 13,9 12,9 - - 8 4 NNE 0,0
16.09.2019 11:00:00 13,7 13,2 - - 8 4 NE 0,0
16.09.2019 10:00:00 13,8 13,4 16,4 15,9 8 4 ENE 0,2
16.09.2019 09:00:00 13,7 13,4 - - 5 3 NE 0,0
16.09.2019 08:00:00 14,1 13,5 - - 8 4 NNE 0,0
16.09.2019 07:00:00 14,8 14,4 - - 5 3 W 0,0
16.09.2019 06:00:00 14,9 14,5 - - 5 3 WSW 0,0
16.09.2019 05:00:00 15,0 14,7 - - 5 3 W 0,0
16.09.2019 04:00:00 15,1 14,7 - - 5 3 W 0,4
16.09.2019 03:00:00 15,3 14,7 - - 8 4 W 0,4
16.09.2019 02:00:00 15,6 14,7 - - 8 4 W 0,0
16.09.2019 01:00:00 15,7 14,6 - - 5 3 W 0,4
16.09.2019 00:00:00 15,9 14,4 - - 4 2 W 0,4
15.09.2019 23:00:00 16,5 14,0 - - 5 3 W 0,0
15.09.2019 22:00:00 16,0 13,8 - - 2 1 WSW 0,0
15.09.2019 21:00:00 16,5 13,6 - - 0 0 N 0,0
15.09.2019 20:00:00 17,6 14,2 - - 4 2 WNW 0,0
15.09.2019 19:00:00 18,1 14,3 - - 8 4 NNW 0,0
15.09.2019 18:00:00 19,2 14,8 - - 8 4 N 0,0
15.09.2019 17:00:00 20,9 14,8 - - 9 5 WSW 0,0
15.09.2019 16:00:00 20,9 14,4 - - 13 7 WSW 0,0
15.09.2019 15:00:00 20,9 14,2 - - 11 6 W 0,0
15.09.2019 14:00:00 21,1 14,4 - - 9 5 W 0,0
15.09.2019 13:00:00 21,1 14,2 - - 9 5 W 0,0
15.09.2019 12:00:00 20,1 13,6 - - 5 3 SSW 0,0
15.09.2019 11:00:00 17,6 11,8 - - 9 5 SW 0,0
15.09.2019 10:00:00 16,0 11,0 15,7 15,9 8 4 SSW 0,0
15.09.2019 09:00:00 14,4 10,1 - - 11 6 WSW 0,0
15.09.2019 08:00:00 12,9 9,3 - - 9 5 W 0,0
15.09.2019 07:00:00 11,6 8,8 - - 8 4 SW 0,0
15.09.2019 06:00:00 12,2 8,8 - - 9 5 WSW 0,0
15.09.2019 05:00:00 11,6 9,3 - - 9 5 W 0,0
15.09.2019 04:00:00 11,9 9,5 - - 8 4 W 0,0
15.09.2019 03:00:00 12,1 9,4 - - 8 4 WSW 0,0
15.09.2019 02:00:00 12,6 9,4 - - 11 6 WSW 0,0
15.09.2019 01:00:00 13,0 8,3 - - 8 4 WSW 0,0
15.09.2019 00:00:00 13,9 8,5 - - 9 5 WSW 0,0
14.09.2019 23:00:00 14,5 7,6 - - 9 5 WSW 0,0
14.09.2019 22:00:00 15,7 7,8 - - 9 5 SW 0,0
14.09.2019 21:00:00 15,5 7,9 - - 5 3 SSW 0,0
14.09.2019 20:00:00 17,1 7,8 - - 8 4 SW 0,0
14.09.2019 19:00:00 18,8 7,2 - - 8 4 SW 0,0
14.09.2019 18:00:00 20,4 6,7 - - 8 4 WSW 0,0
14.09.2019 17:00:00 20,7 6,6 - - 9 5 WSW 0,0
14.09.2019 16:00:00 21,1 6,3 - - 13 7 WSW 0,0
14.09.2019 15:00:00 21,4 7,4 - - 8 4 SW 0,0
14.09.2019 14:00:00 21,2 8,5 - - 8 4 SW 0,0
14.09.2019 13:00:00 19,5 7,3 - - 8 4 SW 0,0
14.09.2019 12:00:00 18,4 6,8 - - 9 5 SSW 0,0
14.09.2019 11:00:00 17,4 8,2 - - 8 4 S 0,0
14.09.2019 10:00:00 15,0 9,8 15,7 16,0 4 2 SSW 0,0
14.09.2019 09:00:00 11,8 9,2 - - 4 2 SSW 0,0
14.09.2019 08:00:00 7,8 7,8 - - 2 1 S 0,0
14.09.2019 07:00:00 5,8 5,0 - - 2 1 S 0,0
14.09.2019 06:00:00 6,7 6,3 - - 2 1 E 0,0
14.09.2019 05:00:00 6,7 5,5 - - 4 2 E 0,0
14.09.2019 04:00:00 7,6 6,5 - - 4 2 NNE 0,0
14.09.2019 03:00:00 8,3 6,5 - - 2 1 E 0,0
14.09.2019 02:00:00 10,1 6,7 - - 4 2 E 0,0
14.09.2019 01:00:00 11,3 6,8 - - 8 4 NNE 0,0
14.09.2019 00:00:00 11,6 7,3 - - 9 5 N 0,0
13.09.2019 23:00:00 12,0 7,6 - - 9 5 N 0,0
13.09.2019 22:00:00 13,0 7,4 - - 9 5 N 0,0
13.09.2019 21:00:00 12,9 7,0 - - 8 4 NNW 0,0
13.09.2019 20:00:00 13,4 5,7 - - 4 2 N 0,0
13.09.2019 19:00:00 15,8 5,9 - - 8 4 NNW 0,0
13.09.2019 18:00:00 17,3 6,3 - - 9 5 NNW 0,0
13.09.2019 17:00:00 17,8 6,7 - - 9 5 N 0,0
13.09.2019 16:00:00 18,1 7,8 - - 11 6 N 0,0
13.09.2019 15:00:00 18,1 7,6 - - 8 4 N 0,0
13.09.2019 14:00:00 17,6 5,8 - - 9 5 N 0,0
13.09.2019 13:00:00 16,5 7,2 - - 9 5 ENE 0,0
13.09.2019 12:00:00 15,8 7,6 - - 9 5 NNE 0,0
13.09.2019 11:00:00 14,7 7,9 - - 13 7 N 0,0
13.09.2019 10:00:00 13,6 8,5 16,0 16,0 13 7 N 0,0
13.09.2019 09:00:00 11,9 9,2 - - 11 6 NNW 0,0
13.09.2019 08:00:00 9,6 8,9 - - 5 3 NW 0,0
13.09.2019 07:00:00 8,3 7,7 - - 4 2 W 0,0
13.09.2019 06:00:00 9,0 8,2 - - 5 3 NW 0,0
13.09.2019 05:00:00 9,6 8,3 - - 4 2 WNW 0,0
13.09.2019 04:00:00 10,6 8,6 - - 5 3 NW 0,0
13.09.2019 03:00:00 11,5 8,9 - - 13 7 NNW 0,0
13.09.2019 02:00:00 12,2 10,0 - - 13 7 NW 0,0
13.09.2019 01:00:00 12,9 10,7 - - 11 6 NW 0,0
13.09.2019 00:00:00 14,2 12,0 - - 13 7 NW 0,0
12.09.2019 23:00:00 15,5 14,4 - - 13 7 NW 0,4
12.09.2019 22:00:00 17,5 15,1 - - 13 7 WSW 0,0
12.09.2019 21:00:00 17,7 14,4 - - 13 7 WSW 0,0
12.09.2019 20:00:00 18,4 13,3 - - 15 8 SW 0,0
12.09.2019 19:00:00 19,3 13,0 - - 9 5 SW 0,0
12.09.2019 18:00:00 20,2 12,5 - - 13 7 WSW 0,0
12.09.2019 17:00:00 21,6 13,9 - - 16 9 SW 0,0
12.09.2019 16:00:00 21,7 14,7 - - 18 10 WSW 0,0
12.09.2019 15:00:00 20,8 15,3 - - 21 11 WSW 0,0
12.09.2019 14:00:00 20,5 14,7 - - 18 10 SW 0,0
12.09.2019 13:00:00 19,8 15,5 - - 16 9 SSW 0,0
12.09.2019 12:00:00 19,6 15,3 - - 16 9 SW 0,0
12.09.2019 11:00:00 19,5 15,5 - - 9 5 SSW 0,0
12.09.2019 10:00:00 16,5 14,6 16,0 16,0 8 4 SW 0,0
12.09.2019 09:00:00 15,6 13,6 - - 9 5 SSW 0,0
12.09.2019 08:00:00 13,5 13,1 - - 8 4 SSW 0,0
12.09.2019 07:00:00 11,5 11,1 - - 5 3 SSW 0,0
12.09.2019 06:00:00 11,1 10,6 - - 8 4 SW 0,0
12.09.2019 05:00:00 11,7 10,9 - - 8 4 SW 0,0
12.09.2019 04:00:00 11,5 10,6 - - 5 3 W 0,0
12.09.2019 03:00:00 11,5 10,6 - - 8 4 WSW 0,0
12.09.2019 02:00:00 11,3 9,9 - - 5 3 WSW 0,0
12.09.2019 01:00:00 11,6 9,7 - - 5 3 W 0,0
12.09.2019 00:00:00 11,9 9,5 - - 5 3 W 0,0
11.09.2019 23:00:00 12,9 9,5 - - 4 2 W 0,0
11.09.2019 22:00:00 13,1 9,1 - - 2 1 SW 0,0
11.09.2019 21:00:00 14,2 9,3 - - 4 2 W 0,0
11.09.2019 20:00:00 16,3 9,5 - - 8 4 W 0,0
11.09.2019 19:00:00 18,4 9,3 - - 11 6 W 0,0
11.09.2019 18:00:00 20,2 9,8 - - 16 9 W 0,0
11.09.2019 17:00:00 21,2 11,3 - - 18 10 W 0,0
11.09.2019 16:00:00 21,9 12,5 - - 15 8 W 0,0
11.09.2019 15:00:00 22,1 12,9 - - 16 9 W 0,0
11.09.2019 14:00:00 20,5 13,9 - - 11 6 W 0,0
11.09.2019 13:00:00 21,5 15,6 - - 21 11 WSW 0,0
11.09.2019 12:00:00 20,4 16,7 - - 13 7 WSW 0,0
11.09.2019 11:00:00 17,8 16,2 - - 13 7 SW 0,0
11.09.2019 10:00:00 17,0 15,2 16,0 16,0 13 7 SW 0,0
11.09.2019 09:00:00 16,0 14,5 - - 15 8 SW 0,0
11.09.2019 08:00:00 14,5 13,7 - - 11 6 SSW 0,0
11.09.2019 07:00:00 13,7 12,8 - - 9 5 SSW 0,0
11.09.2019 06:00:00 13,6 12,6 - - 15 8 SSW 0,0
11.09.2019 05:00:00 13,1 11,7 - - 11 6 SW 0,4
11.09.2019 04:00:00 13,1 10,0 - - 11 6 SW 0,0
11.09.2019 03:00:00 12,8 8,7 - - 11 6 SSW 0,0
11.09.2019 02:00:00 13,0 8,3 - - 13 7 SW 0,0
11.09.2019 01:00:00 13,3 8,1 - - 15 8 WSW 0,0
11.09.2019 00:00:00 13,5 8,4 - - 8 4 SW 0,0
10.09.2019 23:00:00 13,9 7,6 - - 11 6 WSW 0,0
10.09.2019 22:00:00 14,3 6,9 - - 9 5 W 0,0
10.09.2019 21:00:00 14,8 8,0 - - 8 4 W 0,0
10.09.2019 20:00:00 15,4 8,2 - - 9 5 WSW 0,0
10.09.2019 19:00:00 17,2 8,3 - - 9 5 W 0,0
10.09.2019 18:00:00 17,3 9,1 - - 9 5 W 0,0
10.09.2019 17:00:00 17,0 9,2 - - 9 5 W 0,0
10.09.2019 16:00:00 17,4 9,1 - - 9 5 W 0,0

tt = temperature
td = dewpoint
tt -20cm = temperature -20cm
tt -100cm = temperature -100cm
ff = wind speed
dd = wind direction
rr = precipitation

Next stations